createdAt,value
2022-08-17T00:01:16.850Z,98537.94
2022-08-17T00:03:47.590Z,98540.28
2022-08-17T00:06:16.869Z,98541.03
2022-08-17T00:08:45.878Z,98542.97
2022-08-17T00:11:15.230Z,98535.88
2022-08-17T00:13:45.890Z,98541.31
2022-08-17T00:16:15.570Z,98538.94
2022-08-17T00:19:06.015Z,98533.81
2022-08-17T00:22:10.617Z,98547.13
2022-08-17T00:24:19.383Z,98540.84
2022-08-17T00:26:46.322Z,98542.38
2022-08-17T00:29:16.477Z,98532.13
2022-08-17T00:31:46.784Z,98532.50
2022-08-17T00:34:13.354Z,98525.78
2022-08-17T00:36:41.273Z,98525.38
2022-08-17T00:39:07.863Z,98515.19
2022-08-17T00:41:34.710Z,98524.13
2022-08-17T00:44:04.118Z,98522.53
2022-08-17T00:46:32.756Z,98522.13
2022-08-17T00:49:00.161Z,98522.47
2022-08-17T00:51:33.219Z,98524.38
2022-08-17T00:54:10.789Z,98526.75
2022-08-17T00:56:41.671Z,98519.66
2022-08-17T00:59:10.199Z,98519.25
2022-08-17T01:01:37.905Z,98520.00
2022-08-17T01:04:05.591Z,98524.31
2022-08-17T01:06:32.924Z,98526.63
2022-08-17T01:09:02.350Z,98533.63
2022-08-17T01:11:31.092Z,98533.22
2022-08-17T01:13:57.632Z,98529.66
2022-08-17T01:16:26.636Z,98534.34
2022-08-17T01:18:58.150Z,98533.16
2022-08-17T01:21:35.718Z,98537.84
2022-08-17T01:24:04.647Z,98542.91
2022-08-17T01:26:32.482Z,98541.75
2022-08-17T01:29:00.512Z,98535.09
2022-08-17T01:31:30.854Z,98536.25
2022-08-17T01:33:59.839Z,98537.41
2022-08-17T01:36:28.463Z,98532.31
2022-08-17T01:38:55.039Z,98530.34
2022-08-17T01:41:24.279Z,98528.75
2022-08-17T01:43:54.627Z,98531.84
2022-08-17T01:46:24.573Z,98533.03
2022-08-17T01:48:51.293Z,98529.47
2022-08-17T01:51:18.261Z,98529.84
2022-08-17T01:53:48.733Z,98533.00
2022-08-17T01:56:18.132Z,98534.88
2022-08-17T01:58:46.946Z,98527.81
2022-08-17T02:01:14.546Z,98530.50
2022-08-17T02:03:41.270Z,98529.31
2022-08-17T02:06:27.159Z,98533.22
2022-08-17T02:09:02.257Z,98522.56
2022-08-17T02:11:30.932Z,98524.91
2022-08-17T02:14:01.094Z,98525.66
2022-08-17T02:16:36.954Z,98520.91
2022-08-17T02:19:06.297Z,98523.25
2022-08-17T02:21:32.910Z,98515.75
2022-08-17T02:23:59.536Z,98523.56
2022-08-17T02:26:26.763Z,98525.09
2022-08-17T02:28:53.429Z,98521.53
2022-08-17T02:31:21.433Z,98521.47
2022-08-17T02:34:00.233Z,98516.00
2022-08-17T02:36:33.019Z,98514.00
2022-08-17T02:39:00.071Z,98525.69
2022-08-17T02:41:26.606Z,98510.00
2022-08-17T02:43:53.189Z,98513.50
2022-08-17T02:46:21.116Z,98520.53
2022-08-17T02:48:47.728Z,98520.13
2022-08-17T02:51:14.294Z,98515.81
2022-08-17T02:53:40.989Z,98518.13
2022-08-17T02:56:07.641Z,98523.19
2022-08-17T02:58:36.082Z,98505.88
2022-08-17T03:01:04.277Z,98510.56
2022-08-17T03:03:32.269Z,98517.56
2022-08-17T03:05:58.885Z,98507.41
2022-08-17T03:08:25.674Z,98503.09
2022-08-17T03:10:52.551Z,98505.41
2022-08-17T03:13:19.283Z,98495.66
2022-08-17T03:15:47.061Z,98494.06
2022-08-17T03:18:24.918Z,98494.44
2022-08-17T03:20:54.039Z,98487.78
2022-08-17T03:23:23.686Z,98499.09
2022-08-17T03:25:53.147Z,98497.09
2022-08-17T03:28:20.930Z,98502.13
2022-08-17T03:30:47.693Z,98504.03
2022-08-17T03:33:14.422Z,98512.19
2022-08-17T03:35:41.102Z,98518.41
2022-08-17T03:38:11.083Z,98509.03
2022-08-17T03:40:56.569Z,98518.84
2022-08-17T03:43:26.440Z,98516.88
2022-08-17T03:45:52.950Z,98513.78
2022-08-17T03:48:20.159Z,98509.03
2022-08-17T03:50:46.719Z,98506.66
2022-08-17T03:53:17.201Z,98507.06
2022-08-17T03:55:43.788Z,98513.63
2022-08-17T03:58:10.369Z,98524.53
2022-08-17T04:00:39.706Z,98527.63
2022-08-17T04:03:06.467Z,98519.06
2022-08-17T04:05:35.611Z,98517.50
2022-08-17T04:08:02.432Z,98523.06
2022-08-17T04:10:34.676Z,98522.69
2022-08-17T04:13:11.420Z,98527.38
2022-08-17T04:15:37.990Z,98532.47
2022-08-17T04:18:04.571Z,98532.47
2022-08-17T04:20:31.247Z,98536.41
2022-08-17T04:22:59.584Z,98534.03
2022-08-17T04:25:26.340Z,98534.44
2022-08-17T04:27:54.738Z,98533.28
2022-08-17T04:30:21.654Z,98536.84
2022-08-17T04:33:04.768Z,98536.56
2022-08-17T04:35:36.263Z,98543.28
2022-08-17T04:38:02.920Z,98539.81
2022-08-17T04:40:29.522Z,98534.81
2022-08-17T04:43:02.730Z,98535.72
2022-08-17T04:45:32.188Z,98538.91
2022-08-17T04:47:59.448Z,98532.78
2022-08-17T04:50:26.185Z,98528.16
2022-08-17T04:52:52.722Z,98540.06
2022-08-17T04:55:19.331Z,98537.78
2022-08-17T04:57:45.915Z,98538.22
2022-08-17T05:00:14.611Z,98535.59
2022-08-17T05:02:50.096Z,98545.50
2022-08-17T05:05:18.622Z,98556.91
2022-08-17T05:07:45.184Z,98548.75
2022-08-17T05:10:11.843Z,98557.03
2022-08-17T05:12:38.363Z,98552.06
2022-08-17T05:15:10.395Z,98558.78
2022-08-17T05:17:38.300Z,98566.69
2022-08-17T05:20:05.575Z,98563.16
2022-08-17T05:22:32.115Z,98567.91
2022-08-17T05:24:58.651Z,98565.59
2022-08-17T05:27:32.903Z,98570.44
2022-08-17T05:30:02.130Z,98565.81
2022-08-17T05:32:39.285Z,98568.19
2022-08-17T05:35:08.911Z,98561.22
2022-08-17T05:37:35.465Z,98558.91
2022-08-17T05:40:02.098Z,98555.84
2022-08-17T05:42:28.709Z,98551.94
2022-08-17T05:44:57.366Z,98559.44
2022-08-17T05:47:26.153Z,98554.78
2022-08-17T05:49:53.747Z,98551.28
2022-08-17T05:52:32.984Z,98556.03
2022-08-17T05:55:13.687Z,98564.38
2022-08-17T05:57:53.413Z,98560.03
2022-08-17T06:00:26.441Z,98557.75
2022-08-17T06:03:44.894Z,98561.75
2022-08-17T06:06:25.284Z,98555.53
2022-08-17T06:09:15.220Z,98562.28
2022-08-17T06:11:47.623Z,98557.66
2022-08-17T06:14:38.217Z,98561.28
2022-08-17T06:17:10.856Z,98558.56
2022-08-17T06:19:42.647Z,98555.09
2022-08-17T06:22:13.028Z,98554.00
2022-08-17T06:24:45.516Z,98554.81
2022-08-17T06:27:21.725Z,98558.38
2022-08-17T06:29:53.680Z,98552.94
2022-08-17T06:32:20.587Z,98551.78
2022-08-17T06:34:47.842Z,98551.00
2022-08-17T06:37:37.574Z,98550.22
2022-08-17T06:40:23.880Z,98562.78
2022-08-17T06:43:05.889Z,98553.34
2022-08-17T06:45:38.603Z,98552.91
2022-08-17T06:48:12.766Z,98554.13
2022-08-17T06:50:44.085Z,98561.94
2022-08-17T06:53:19.621Z,98566.66
2022-08-17T06:55:55.867Z,98569.34
2022-08-17T06:58:24.247Z,98563.78
2022-08-17T07:00:58.813Z,98548.28
2022-08-17T07:03:33.655Z,98550.16
2022-08-17T07:06:06.486Z,98551.59
2022-08-17T07:08:44.540Z,98546.34
2022-08-17T07:11:16.413Z,98554.50
2022-08-17T07:13:51.589Z,98554.75
2022-08-17T07:16:23.994Z,98564.84
2022-08-17T07:18:52.765Z,98559.97
2022-08-17T07:21:34.210Z,98555.00
2022-08-17T07:24:29.176Z,98557.00
2022-08-17T07:27:16.119Z,98552.03
2022-08-17T07:29:48.421Z,98549.16
2022-08-17T07:32:17.526Z,98559.09
2022-08-17T07:35:10.862Z,98549.63
2022-08-17T07:37:39.890Z,98546.34
2022-08-17T07:40:20.181Z,98548.13
2022-08-17T07:43:23.009Z,98563.09
2022-08-17T07:46:02.470Z,98559.38
2022-08-17T07:48:29.169Z,98568.00
2022-08-17T07:50:55.742Z,98570.22
2022-08-17T07:53:24.872Z,98570.84
2022-08-17T07:55:52.768Z,98570.25
2022-08-17T07:58:22.544Z,98575.25
2022-08-17T08:01:04.610Z,98575.59
2022-08-17T08:03:33.099Z,98573.41
2022-08-17T08:06:01.998Z,98571.00
2022-08-17T08:08:33.431Z,98565.94
2022-08-17T08:11:07.882Z,98567.41
2022-08-17T08:13:37.260Z,98567.50
2022-08-17T08:16:20.706Z,98568.13
2022-08-17T08:18:54.772Z,98571.03
2022-08-17T08:21:31.724Z,98568.97
2022-08-17T08:24:10.038Z,98555.84
2022-08-17T08:26:43.621Z,98558.22
2022-08-17T08:29:20.586Z,98564.84
2022-08-17T08:31:56.808Z,98559.22
2022-08-17T08:34:58.623Z,98573.38
2022-08-17T08:37:34.511Z,98567.84
2022-08-17T08:40:19.482Z,98564.59
2022-08-17T08:42:57.390Z,98574.56
2022-08-17T08:45:32.038Z,98565.38
2022-08-17T08:48:57.033Z,98568.84
2022-08-17T08:51:03.891Z,98573.72
2022-08-17T08:53:40.983Z,98574.28
2022-08-17T08:56:16.316Z,98575.69
2022-08-17T08:58:51.183Z,98575.06
2022-08-17T09:01:27.672Z,98572.63
2022-08-17T09:04:25.933Z,98567.13
2022-08-17T09:07:02.292Z,98568.13
2022-08-17T09:09:42.593Z,98572.97
2022-08-17T09:12:17.397Z,98554.19
2022-08-17T09:14:54.135Z,98550.53
2022-08-17T09:17:31.198Z,98555.66
2022-08-17T09:20:02.206Z,98558.00
2022-08-17T09:22:34.135Z,98559.50
2022-08-17T09:25:08.937Z,98552.72
2022-08-17T09:27:49.222Z,98551.97
2022-08-17T09:30:16.220Z,98551.03
2022-08-17T09:32:46.185Z,98557.00
2022-08-17T09:35:17.402Z,98551.56
2022-08-17T09:37:58.468Z,98553.91
2022-08-17T09:40:30.879Z,98556.53
2022-08-17T09:43:04.191Z,98553.53
2022-08-17T09:45:35.700Z,98560.31
2022-08-17T09:48:08.199Z,98554.97
2022-08-17T09:50:55.238Z,98554.53
2022-08-17T09:53:31.790Z,98555.19
2022-08-17T09:56:22.015Z,98553.06
2022-08-17T09:59:08.475Z,98551.03
2022-08-17T10:01:39.414Z,98556.91
2022-08-17T10:04:29.366Z,98557.94
2022-08-17T10:07:03.502Z,98560.34
2022-08-17T10:09:48.454Z,98556.56
2022-08-17T10:12:29.952Z,98557.00
2022-08-17T10:15:11.777Z,98558.00
2022-08-17T10:17:46.182Z,98548.41
2022-08-17T10:20:18.960Z,98545.34
2022-08-17T10:22:54.856Z,98550.50
2022-08-17T10:25:27.781Z,98547.69
2022-08-17T10:28:06.536Z,98553.94
2022-08-17T10:30:37.883Z,98551.97
2022-08-17T10:33:12.624Z,98557.03
2022-08-17T10:35:47.573Z,98556.94
2022-08-17T10:38:38.847Z,98563.69
2022-08-17T10:41:19.838Z,98564.31
2022-08-17T10:44:36.976Z,98564.66
2022-08-17T10:47:02.945Z,98574.16
2022-08-17T10:49:32.067Z,98573.03
2022-08-17T10:52:01.904Z,98577.88
2022-08-17T10:54:40.683Z,98582.06
2022-08-17T10:57:39.056Z,98585.06
2022-08-17T11:00:10.497Z,98585.66
2022-08-17T11:02:43.955Z,98591.44
2022-08-17T11:05:23.312Z,98580.69
2022-08-17T11:08:06.960Z,98592.06
2022-08-17T11:10:52.270Z,98601.88
2022-08-17T11:13:31.998Z,98595.16
2022-08-17T11:16:15.026Z,98591.44
2022-08-17T11:19:07.091Z,98598.28
2022-08-17T11:22:01.585Z,98595.94
2022-08-17T11:24:34.192Z,98600.16
2022-08-17T11:27:07.943Z,98597.50
2022-08-17T11:29:52.932Z,98597.34
2022-08-17T11:32:36.743Z,98591.91
2022-08-17T11:35:25.099Z,98590.28
2022-08-17T11:38:06.950Z,98593.53
2022-08-17T11:40:46.123Z,98590.25
2022-08-17T11:43:30.864Z,98585.84
2022-08-17T11:46:07.455Z,98579.47
2022-08-17T11:48:43.079Z,98588.84
2022-08-17T11:51:13.343Z,98591.94
2022-08-17T11:54:31.131Z,98592.69
2022-08-17T11:56:51.362Z,98591.47
2022-08-17T12:00:07.003Z,98597.56
2022-08-17T12:02:42.373Z,98589.75
2022-08-17T12:05:36.008Z,98587.53
2022-08-17T12:08:18.759Z,98595.47
2022-08-17T12:10:58.178Z,98594.50
2022-08-17T12:13:27.403Z,98602.03
2022-08-17T12:16:01.517Z,98610.44
2022-08-17T12:18:31.723Z,98608.41
2022-08-17T12:21:19.335Z,98599.84
2022-08-17T12:23:55.415Z,98608.53
2022-08-17T12:26:25.646Z,98596.97
2022-08-17T12:28:58.801Z,98595.53
2022-08-17T12:31:28.676Z,98601.16
2022-08-17T12:33:56.126Z,98599.28
2022-08-17T12:36:25.326Z,98601.13
2022-08-17T12:38:55.868Z,98595.72
2022-08-17T12:41:34.560Z,98592.53
2022-08-17T12:44:05.266Z,98591.25
2022-08-17T12:46:34.378Z,98586.81
2022-08-17T12:49:12.949Z,98587.06
2022-08-17T12:51:43.444Z,98586.25
2022-08-17T12:54:24.004Z,98581.44
2022-08-17T12:56:50.634Z,98574.34
2022-08-17T12:59:29.857Z,98578.19
2022-08-17T13:01:57.628Z,98570.19
2022-08-17T13:04:24.695Z,98572.19
2022-08-17T13:07:00.146Z,98575.91
2022-08-17T13:09:35.316Z,98558.94
2022-08-17T13:12:07.678Z,98556.84
2022-08-17T13:14:35.913Z,98557.72
2022-08-17T13:17:03.338Z,98557.34
2022-08-17T13:19:40.963Z,98558.59
2022-08-17T13:22:12.202Z,98560.06
2022-08-17T13:24:49.421Z,98556.94
2022-08-17T13:27:20.997Z,98563.09
2022-08-17T13:29:53.292Z,98561.22
2022-08-17T13:32:22.392Z,98564.91
2022-08-17T13:35:14.255Z,98564.91
2022-08-17T13:37:37.948Z,98557.44
2022-08-17T13:40:29.925Z,98560.47
2022-08-17T13:42:57.831Z,98560.47
2022-08-17T13:45:56.500Z,98560.66
2022-08-17T13:48:26.451Z,98552.97
2022-08-17T13:51:22.145Z,98561.94
2022-08-17T13:53:56.535Z,98562.34
2022-08-17T13:56:38.556Z,98555.66
2022-08-17T13:59:08.710Z,98559.25
2022-08-17T14:01:39.566Z,98548.78
2022-08-17T14:04:08.249Z,98546.44
2022-08-17T14:06:51.911Z,98547.28
2022-08-17T14:09:25.337Z,98541.41
2022-08-17T14:11:53.795Z,98546.69
2022-08-17T14:14:21.208Z,98543.09
2022-08-17T14:16:49.206Z,98541.06
2022-08-17T14:19:15.783Z,98544.69
2022-08-17T14:21:44.396Z,98536.72
2022-08-17T14:24:18.275Z,98531.59
2022-08-17T14:26:44.868Z,98535.63
2022-08-17T14:29:14.977Z,98526.72
2022-08-17T14:31:42.376Z,98523.44
2022-08-17T14:34:16.403Z,98518.25
2022-08-17T14:36:48.211Z,98524.78
2022-08-17T14:39:16.648Z,98529.13
2022-08-17T14:41:43.887Z,98521.16
2022-08-17T14:44:11.057Z,98525.31
2022-08-17T14:46:38.013Z,98519.66
2022-08-17T14:49:04.593Z,98524.53
2022-08-17T14:51:32.693Z,98514.44
2022-08-17T14:53:59.310Z,98508.25
2022-08-17T14:56:26.184Z,98507.25
2022-08-17T14:58:52.852Z,98496.06
2022-08-17T15:01:20.904Z,98505.13
2022-08-17T15:03:47.552Z,98502.38
2022-08-17T15:06:14.324Z,98494.66
2022-08-17T15:08:44.335Z,98488.78
2022-08-17T15:11:14.418Z,98495.78
2022-08-17T15:13:53.007Z,98496.53
2022-08-17T15:16:20.149Z,98495.69
2022-08-17T15:18:46.753Z,98491.09
2022-08-17T15:21:13.311Z,98486.75
2022-08-17T15:23:39.897Z,98494.47
2022-08-17T15:26:10.715Z,98479.78
2022-08-17T15:28:37.325Z,98476.88
2022-08-17T15:31:04.099Z,98459.72
2022-08-17T15:33:30.693Z,98474.63
2022-08-17T15:35:59.786Z,98469.38
2022-08-17T15:38:26.777Z,98476.66
2022-08-17T15:40:54.188Z,98465.19
2022-08-17T15:43:27.597Z,98469.31
2022-08-17T15:45:59.820Z,98468.28
2022-08-17T15:48:27.629Z,98473.19
2022-08-17T15:50:54.175Z,98471.16
2022-08-17T15:53:20.757Z,98469.13
2022-08-17T15:55:47.314Z,98454.22
2022-08-17T15:58:13.825Z,98452.59
2022-08-17T16:00:49.061Z,98460.44
2022-08-17T16:04:01.451Z,98458.16
2022-08-17T16:06:07.487Z,98464.47
2022-08-17T16:08:37.464Z,98464.28
2022-08-17T16:11:04.558Z,98448.13
2022-08-17T16:13:31.617Z,98462.47
2022-08-17T16:15:59.634Z,98458.38
2022-08-17T16:18:27.978Z,98453.69
2022-08-17T16:20:54.606Z,98453.59
2022-08-17T16:23:21.159Z,98446.25
2022-08-17T16:25:53.684Z,98442.66
2022-08-17T16:28:21.478Z,98446.34
2022-08-17T16:30:48.082Z,98446.09
2022-08-17T16:33:16.020Z,98432.13
2022-08-17T16:35:42.617Z,98438.84
2022-08-17T16:38:09.264Z,98423.09
2022-08-17T16:40:36.422Z,98432.16
2022-08-17T16:43:04.634Z,98427.03
2022-08-17T16:45:31.597Z,98432.16
2022-08-17T16:47:58.726Z,98429.34
2022-08-17T16:50:26.664Z,98432.81
2022-08-17T16:53:02.931Z,98433.19
2022-08-17T16:55:29.507Z,98433.66
2022-08-17T16:57:56.092Z,98438.81
2022-08-17T17:00:22.867Z,98438.31
2022-08-17T17:02:49.604Z,98439.78
2022-08-17T17:05:36.347Z,98438.72
2022-08-17T17:08:07.963Z,98442.47
2022-08-17T17:10:39.233Z,98455.97
2022-08-17T17:13:12.027Z,98449.00
2022-08-17T17:15:46.620Z,98447.66
2022-08-17T17:18:13.972Z,98448.25
2022-08-17T17:20:47.586Z,98450.34
2022-08-17T17:23:26.502Z,98449.91
2022-08-17T17:26:02.924Z,98454.88
2022-08-17T17:28:37.502Z,98460.75
2022-08-17T17:31:10.430Z,98449.16
2022-08-17T17:33:42.513Z,98460.47
2022-08-17T17:36:22.203Z,98465.59
2022-08-17T17:38:52.712Z,98461.44
2022-08-17T17:41:26.504Z,98461.69
2022-08-17T17:44:01.682Z,98466.88
2022-08-17T17:46:32.627Z,98471.13
2022-08-17T17:48:59.944Z,98464.94
2022-08-17T17:52:09.111Z,98467.91
2022-08-17T17:54:36.609Z,98476.34
2022-08-17T17:57:11.100Z,98485.69
2022-08-17T17:59:48.072Z,98485.69
2022-08-17T18:02:31.771Z,98488.47
2022-08-17T18:05:08.552Z,98480.44
2022-08-17T18:07:42.714Z,98482.44
2022-08-17T18:10:29.619Z,98479.75
2022-08-17T18:13:04.606Z,98478.47
2022-08-17T18:15:36.772Z,98477.31
2022-08-17T18:18:39.152Z,98478.31
2022-08-17T18:21:10.080Z,98482.56
2022-08-17T18:23:46.539Z,98477.31
2022-08-17T18:26:13.153Z,98478.09
2022-08-17T18:28:41.774Z,98480.31
2022-08-17T18:31:12.568Z,98493.44
2022-08-17T18:33:41.926Z,98483.41
2022-08-17T18:36:08.778Z,98486.59
2022-08-17T18:38:37.421Z,98484.84
2022-08-17T18:41:17.817Z,98487.59
2022-08-17T18:43:53.170Z,98483.88
2022-08-17T18:46:29.196Z,98486.97
2022-08-17T18:48:59.275Z,98492.03
2022-08-17T18:51:40.451Z,98491.34
2022-08-17T18:54:20.991Z,98496.31
2022-08-17T18:56:54.476Z,98500.19
2022-08-17T18:59:32.885Z,98503.19
2022-08-17T19:02:11.637Z,98502.84
2022-08-17T19:04:43.059Z,98501.09
2022-08-17T19:07:29.973Z,98502.22
2022-08-17T19:10:13.923Z,98506.81
2022-08-17T19:12:46.782Z,98509.53
2022-08-17T19:15:15.971Z,98506.97
2022-08-17T19:17:48.046Z,98516.25
2022-08-17T19:20:19.272Z,98519.31
2022-08-17T19:22:56.318Z,98519.63
2022-08-17T19:25:27.342Z,98531.75
2022-08-17T19:28:01.602Z,98532.91
2022-08-17T19:30:30.035Z,98528.25
2022-08-17T19:32:56.851Z,98528.91
2022-08-17T19:35:29.652Z,98529.84
2022-08-17T19:38:03.468Z,98536.75
2022-08-17T19:40:52.330Z,98534.22
2022-08-17T19:43:28.472Z,98534.06
2022-08-17T19:46:02.699Z,98533.38
2022-08-17T19:48:42.591Z,98540.34
2022-08-17T19:51:13.706Z,98534.97
2022-08-17T19:54:04.815Z,98537.16
2022-08-17T19:56:41.356Z,98536.56
2022-08-17T19:59:16.101Z,98526.91
2022-08-17T20:01:47.726Z,98534.53
2022-08-17T20:04:21.587Z,98535.78
2022-08-17T20:06:48.915Z,98545.38
2022-08-17T20:09:20.941Z,98543.09
2022-08-17T20:11:54.103Z,98548.34
2022-08-17T20:14:25.683Z,98544.09
2022-08-17T20:16:52.548Z,98539.09
2022-08-17T20:19:29.078Z,98538.88
2022-08-17T20:22:00.782Z,98539.78
2022-08-17T20:24:34.836Z,98542.25
2022-08-17T20:27:13.137Z,98542.34
2022-08-17T20:30:04.507Z,98546.75
2022-08-17T20:32:33.877Z,98558.66
2022-08-17T20:35:08.446Z,98562.66
2022-08-17T20:37:36.024Z,98552.88
2022-08-17T20:40:19.105Z,98552.94
2022-08-17T20:42:46.183Z,98544.38
2022-08-17T20:45:52.564Z,98549.13
2022-08-17T20:48:37.427Z,98551.97
2022-08-17T20:51:22.323Z,98550.41
2022-08-17T20:54:25.330Z,98551.25
2022-08-17T20:56:54.929Z,98535.56
2022-08-17T20:59:53.694Z,98537.56
2022-08-17T21:02:23.707Z,98539.59
2022-08-17T21:05:16.872Z,98543.94
2022-08-17T21:07:52.953Z,98538.06
2022-08-17T21:10:32.409Z,98537.28
2022-08-17T21:13:04.186Z,98538.50
2022-08-17T21:15:39.263Z,98551.56
2022-08-17T21:18:15.244Z,98543.28
2022-08-17T21:20:49.146Z,98553.56
2022-08-17T21:23:39.834Z,98560.28
2022-08-17T21:26:30.763Z,98565.44
2022-08-17T21:29:30.290Z,98568.63
2022-08-17T21:32:19.206Z,98573.34
2022-08-17T21:35:27.760Z,98569.03
2022-08-17T21:37:58.500Z,98580.50
2022-08-17T21:40:27.769Z,98597.84
2022-08-17T21:42:57.223Z,98590.75
2022-08-17T21:45:28.876Z,98595.47
2022-08-17T21:48:12.194Z,98591.91
2022-08-17T21:50:42.258Z,98593.91
2022-08-17T21:53:12.733Z,98601.41
2022-08-17T21:55:39.492Z,98612.81
2022-08-17T21:58:22.007Z,98616.75
2022-08-17T22:01:09.661Z,98615.19
2022-08-17T22:03:36.308Z,98618.72
2022-08-17T22:09:03.436Z,98610.84
2022-08-17T22:11:30.290Z,98608.47
2022-08-17T22:14:05.452Z,98612.00
2022-08-17T22:16:32.596Z,98606.88
2022-08-17T22:18:59.442Z,98615.16
2022-08-17T22:21:26.470Z,98618.28
2022-08-17T22:24:03.235Z,98625.78
2022-08-17T22:27:05.411Z,98629.31
2022-08-17T22:29:47.255Z,98626.16
2022-08-17T22:32:33.738Z,98623.00
2022-08-17T22:35:32.596Z,98628.09
2022-08-17T22:38:28.127Z,98618.22
2022-08-17T22:41:12.424Z,98631.59
2022-08-17T22:43:43.094Z,98633.91
2022-08-17T22:46:11.856Z,98634.31
2022-08-17T22:48:47.538Z,98641.34
2022-08-17T22:51:18.645Z,98633.47
2022-08-17T22:53:46.883Z,98624.78
2022-08-17T22:56:18.479Z,98636.22
2022-08-17T22:58:58.964Z,98627.13
2022-08-17T23:01:29.433Z,98628.31
2022-08-17T23:03:58.291Z,98629.47
2022-08-17T23:06:25.090Z,98633.75
2022-08-17T23:08:52.764Z,98628.25
2022-08-17T23:11:23.335Z,98629.03
2022-08-17T23:14:11.043Z,98619.97
2022-08-17T23:16:38.839Z,98630.91
2022-08-17T23:19:05.405Z,98627.38
2022-08-17T23:21:32.107Z,98628.56
2022-08-17T23:24:05.157Z,98625.78
2022-08-17T23:26:34.166Z,98627.72
2022-08-17T23:29:00.719Z,98634.81
2022-08-17T23:31:27.279Z,98635.91
2022-08-17T23:33:53.896Z,98635.91
2022-08-17T23:36:20.467Z,98637.88
2022-08-17T23:38:47.032Z,98640.19
2022-08-17T23:41:16.768Z,98637.44
2022-08-17T23:43:47.725Z,98640.16
2022-08-17T23:46:14.369Z,98651.13
2022-08-17T23:48:40.909Z,98653.44
2022-08-17T23:51:11.631Z,98656.94
2022-08-17T23:53:42.146Z,98667.88
2022-08-17T23:56:10.250Z,98660.38
2022-08-17T23:58:37.227Z,98656.78
